Latest Weather Observations for Holmes Reef

IDQ60801

Issued at 6:02 am EST Tuesday 28 February 2017 (issued every 30 minutes, with the page automatically refreshed every 10 minutes)

About weather observations | Map of weather stations | Latest weather observations for QLD | Other Formats
Station Details ID: 200732 Name: HOLMES REEF Lat: -16.47 Lon: 147.87 Height: 1.9 m
Data from the previous 72 hours. | See also: Recent months at Holmes Reef
Date/Time
EST
Temp
°C
App
Temp
°C
Dew
Point
°C
Rel
Hum
%
Delta-T
°C
Wind Press
QNH
hPa
Press
MSL
hPa
Rain since
9am
mm
Dir  Spd
km/h
Gust
km/h
Spd
kts
Gust
kts
28/06:00am 28.6 - - - - SE 35 46 19 25 1008.7 - -
28/05:30am 28.6 - - - - SE 35 41 19 22 1008.5 - -
28/05:15am 28.6 - - - - SE 33 - 18 - - 1008.0 -
28/05:00am 28.6 - - - - SE 33 41 18 22 1008.1 - -
28/04:30am 28.6 - - - - SE 32 35 17 19 1008.0 - -
28/04:15am 28.6 - - - - SE 32 - 17 - - 1007.6 -
28/04:00am 28.6 - - - - SE 35 39 19 21 1008.0 - -
28/03:30am 28.6 - - - - SE 33 39 18 21 1008.0 - -
28/03:15am 28.6 - - - - SE 33 - 18 - - 1007.7 -
28/03:00am 28.7 - - - - SE 32 35 17 19 1008.1 - -
28/02:30am 28.8 - - - - SE 35 41 19 22 1008.4 - -
28/02:15am 28.7 - - - - SE 32 - 17 - - 1008.3 -
28/02:00am 28.6 - - - - SE 33 39 18 21 1008.8 - -
28/01:30am 28.8 - - - - SE 35 39 19 21 1009.0 - -
28/01:15am 28.7 - - - - SE 37 - 20 - - 1008.9 -
28/01:00am 28.6 - - - - SE 33 41 18 22 1009.4 - -
28/12:30am 28.8 - - - - SE 33 37 18 20 1009.9 - -
28/12:15am 28.8 - - - - SE 33 - 18 - - 1009.9 -
28/12:00am 28.7 - - - - SE 33 39 18 21 1010.2 - -
 
Date/Time
EST
Temp
°C
App
Temp
°C
Dew
Point
°C
Rel
Hum
%
Delta-T
°C
Wind Press
QNH
hPa
Press
MSL
hPa
Rain since
9am
mm
Dir  Spd
km/h
Gust
km/h
Spd
kts
Gust
kts
27/11:30pm 28.9 - - - - SE 35 39 19 21 1010.5 - -
27/11:15pm 28.8 - - - - SE 33 - 18 - - 1010.3 -
27/11:00pm 28.7 - - - - SE 37 41 20 22 1010.7 - -
27/10:35pm 27.4 - - - - SE 37 56 20 30 1010.8 - -
27/10:30pm 27.0 - - - - SE 39 56 21 30 1010.8 - -
27/10:26pm 28.0 - - - - SE 35 56 19 30 1010.7 - -
27/10:15pm 28.7 - - - - SE 33 - 18 - - 1010.2 -
27/10:00pm 28.8 - - - - SE 33 41 18 22 1010.3 - -
27/09:30pm 27.1 - - - - SSE 44 56 24 30 1010.3 - -
27/09:16pm 28.4 - - - - SE 37 59 20 32 1010.1 - -
27/09:15pm 28.7 - - - - SE 37 - 20 - - 1009.8 -
27/09:00pm 28.8 - - - - SE 37 44 20 24 1009.9 - -
27/08:30pm 28.9 - - - - SE 37 43 20 23 1009.7 - -
27/08:15pm 28.4 - - - - SE 33 - 18 - - 1009.3 -
27/08:00pm 28.9 - - - - SE 33 39 18 21 1009.6 - -
27/07:30pm 28.6 - - - - SE 28 37 15 20 1009.3 - -
27/07:15pm 28.2 - - - - SE 9 - 5 - - 1008.9 -
27/07:00pm 29.0 - - - - SE 4 33 2 18 1009.2 - -
27/06:30pm 29.0 - - - - SE 32 35 17 19 1009.0 - -
27/06:15pm 29.2 - - - - SE 33 - 18 - - 1008.5 -
27/06:00pm 29.3 - - - - SE 32 37 17 20 1008.6 - -
27/05:30pm 29.3 - - - - SE 33 39 18 21 1008.3 - -
27/05:15pm 29.3 - - - - SE 35 - 19 - - 1007.8 -
27/05:00pm 29.2 - - - - SE 33 37 18 20 1008.1 - -
27/04:30pm 29.3 - - - - SE 32 37 17 20 1008.1 - -
27/04:15pm 29.3 - - - - SE 30 - 16 - - 1007.9 -
27/04:00pm 29.3 - - - - SE 30 35 16 19 1008.1 - -
27/03:30pm 29.2 - - - - SE 32 35 17 19 1007.9 - -
27/03:15pm 29.2 - - - - SE 30 - 16 - - 1007.7 -
27/03:00pm 29.3 - - - - SE 30 35 16 19 1008.1 - -
27/02:30pm 29.2 - - - - SE 28 35 15 19 1008.2 - -
27/02:15pm 29.3 - - - - SE 28 - 15 - - 1008.0 -
27/02:00pm 29.3 - - - - SE 28 33 15 18 1008.3 - -
27/01:30pm 29.0 - - - - ESE 22 28 12 15 1008.5 - -
27/01:15pm 28.8 - - - - E 24 - 13 - - 1008.6 -
27/01:00pm 29.3 - - - - ESE 30 33 16 18 1009.0 - -
27/12:30pm 29.4 - - - - ESE 28 32 15 17 1009.4 - -
27/12:15pm 29.3 - - - - ESE 30 - 16 - - 1009.4 -
27/12:00pm 29.3 - - - - ESE 30 33 16 18 1009.8 - -
27/11:30am 29.0 - - - - ESE 28 33 15 18 1010.1 - -
27/11:15am 27.9 - - - - E 13 - 7 - - 1010.1 -
27/11:00am 26.7 - - - - SE 6 9 3 5 1010.5 - -
27/10:39am 27.3 - - - - ESE 30 43 16 23 1011.0 - -
27/10:30am 28.0 - - - - ENE 13 17 7 9 1010.7 - -
27/10:15am 27.8 - - - - E 15 - 8 - - 1010.5 -
27/10:00am 27.9 - - - - ENE 20 28 11 15 1011.0 - -
27/09:30am 28.0 - - - - ESE 26 30 14 16 1011.0 - -
27/09:15am 28.1 - - - - ESE 28 - 15 - - 1010.4 -
27/09:00am 27.6 - - - - ESE 32 48 17 26 1010.8 - -
27/08:30am 27.3 - - - - E 32 35 17 19 1010.6 - -
27/08:15am 27.3 - - - - E 35 - 19 - - 1010.1 -
27/08:00am 27.0 - - - - E 41 46 22 25 1010.4 - -
27/07:30am 26.8 - - - - E 43 48 23 26 1010.0 - -
27/07:15am 26.8 - - - - E 48 - 26 - - 1009.3 -
27/07:00am 28.8 - - - - ESE 41 46 22 25 1009.3 - -
27/06:30am 28.3 - - - - SE 37 43 20 23 1009.0 - -
27/06:15am 28.0 - - - - ESE 37 - 20 - - 1008.4 -
27/06:00am 28.2 - - - - ESE 43 52 23 28 1008.5 - -
27/05:30am 27.9 - - - - ESE 41 46 22 25 1008.5 - -
27/05:15am 27.4 - - - - E 44 - 24 - - 1007.8 -
27/05:14am 27.5 - - - - E 44 52 24 28 1008.2 - -
27/05:00am 28.6 - - - - SE 39 44 21 24 1007.9 - -
27/04:30am 28.1 - - - - SE 43 50 23 27 1007.8 - -
27/04:15am 28.0 - - - - SE 37 - 20 - - 1007.4 -
27/04:00am 27.3 - - - - SE 35 41 19 22 1007.8 - -
27/03:30am 27.1 - - - - ESE 30 37 16 20 1007.8 - -
27/03:15am 26.5 - - - - ESE 37 - 20 - - 1007.8 -
27/03:00am 26.2 - - - - SE 44 52 24 28 1008.2 - -
27/02:57am 26.0 - - - - SE 44 52 24 28 1008.1 - -
27/02:30am 25.4 - - - - E 41 48 22 26 1008.6 - -
27/02:15am 25.7 - - - - E 50 - 27 - - 1008.3 -
27/02:09am 26.7 - - - - ESE 32 50 17 27 1008.4 - -
27/02:00am 26.8 - - - - ESE 35 44 19 24 1008.5 - -
27/01:52am 27.2 - - - - ESE 37 44 20 24 1008.5 - -
27/01:30am 27.5 - - - - SSE 32 37 17 20 1008.7 - -
27/01:15am 27.3 - - - - SSE 41 - 22 - - 1008.5 -
27/01:00am 27.2 - - - - SE 44 52 24 28 1008.9 - -
27/12:55am 27.0 - - - - SE 48 52 26 28 1008.9 - -
27/12:45am 27.9 - - - - ESE 37 46 20 25 1009.2 - -
27/12:35am 26.9 - - - - E 44 52 24 28 1009.3 - -
27/12:30am 28.1 - - - - ESE 35 41 19 22 1009.2 - -
27/12:15am 28.0 - - - - SSE 32 - 17 - - 1008.9 -
27/12:00am 28.2 - - - - SSE 32 37 17 20 1009.4 - -
 
Date/Time
EST
Temp
°C
App
Temp
°C
Dew
Point
°C
Rel
Hum
%
Delta-T
°C
Wind Press
QNH
hPa
Press
MSL
hPa
Rain since
9am
mm
Dir  Spd
km/h
Gust
km/h
Spd
kts
Gust
kts
26/11:30pm 27.9 - - - - SSE 37 43 20 23 1009.7 - -
26/11:15pm 28.6 - - - - SE 32 - 17 - - 1009.5 -
26/11:00pm 28.5 - - - - SE 35 39 19 21 1010.0 - -
26/10:30pm 28.6 - - - - ESE 33 39 18 21 1009.7 - -
26/10:15pm 28.4 - - - - ESE 33 - 18 - - 1009.4 -
26/10:00pm 28.2 - - - - ESE 35 39 19 21 1009.6 - -
26/09:30pm 28.2 - - - - SE 37 43 20 23 1009.5 - -
26/09:15pm 28.1 - - - - SE 37 - 20 - - 1009.1 -
26/09:00pm 28.3 - - - - ESE 33 39 18 21 1009.2 - -
26/08:51pm 28.1 - - - - ESE 37 43 20 23 1009.2 - -
26/08:30pm 27.8 - - - - SSE 6 7 3 4 1009.0 - -
26/08:15pm 29.0 - - - - SE 6 - 3 - - 1008.5 -
26/08:00pm 29.1 - - - - SE 4 6 2 3 1008.6 - -
26/07:30pm 29.0 - - - - SE 4 7 2 4 1008.2 - -
26/07:15pm 28.9 - - - - SE 4 - 2 - - 1007.8 -
26/07:00pm 28.9 - - - - SE 4 6 2 3 1008.0 - -
26/06:30pm 28.8 - - - - SE 33 39 18 21 1007.7 - -
26/06:15pm 28.8 - - - - SE 30 - 16 - - 1007.3 -
26/06:00pm 28.9 - - - - SE 30 35 16 19 1007.6 - -
26/05:30pm 29.1 - - - - SE 28 33 15 18 1007.5 - -
26/05:15pm 28.9 - - - - SE 28 - 15 - - 1007.2 -
26/05:00pm 28.7 - - - - SE 30 33 16 18 1007.4 - -
26/04:30pm 29.0 - - - - SE 26 30 14 16 1007.2 - -
26/04:15pm 29.1 - - - - SE 26 - 14 - - 1007.0 -
26/04:00pm 29.0 - - - - SE 24 28 13 15 1007.4 - -
26/03:30pm 29.1 - - - - SE 24 28 13 15 1007.4 - -
26/03:15pm 29.0 - - - - SE 26 - 14 - - 1006.9 -
26/03:00pm 29.0 - - - - SE 24 28 13 15 1007.3 - -
26/02:30pm 28.9 - - - - SE 28 32 15 17 1007.4 - -
26/02:15pm 28.9 - - - - SE 26 - 14 - - 1007.2 -
26/02:00pm 28.8 - - - - SE 28 32 15 17 1007.6 - -
26/01:30pm 29.0 - - - - SE 26 32 14 17 1007.9 - -
26/01:15pm 29.1 - - - - SE 26 - 14 - - 1007.7 -
26/01:00pm 28.9 - - - - SSE 26 30 14 16 1008.2 - -
26/12:30pm 28.7 - - - - SE 26 30 14 16 1008.6 - -
26/12:15pm 28.8 - - - - SSE 28 - 15 - - 1008.4 -
26/12:00pm 28.9 - - - - SE 30 33 16 18 1008.8 - -
26/11:30am 28.9 - - - - SE 28 32 15 17 1009.2 - -
26/11:15am 29.1 - - - - SSE 26 - 14 - - 1008.9 -
26/11:00am 29.0 - - - - SE 24 30 13 16 1009.3 - -
26/10:30am 29.2 - - - - SSE 24 28 13 15 1009.5 - -
26/10:15am 29.2 - - - - SSE 22 - 12 - - 1009.3 -
26/10:00am 29.2 - - - - SE 24 30 13 16 1009.6 - -
26/09:30am 28.9 - - - - SE 24 30 13 16 1009.8 - -
26/09:15am 28.9 - - - - SSE 26 - 14 - - 1009.6 -
26/09:00am 29.2 - - - - SE 19 26 10 14 1009.8 - -
26/08:30am 29.2 - - - - SE 24 30 13 16 1009.8 - -
26/08:15am 29.1 - - - - SE 22 - 12 - - 1009.5 -
26/08:00am 29.0 - - - - SE 24 28 13 15 1009.6 - -
26/07:30am 28.9 - - - - ESE 22 28 12 15 1009.2 - -
26/07:15am 28.8 - - - - ESE 24 - 13 - - 1008.6 -
26/07:00am 28.7 - - - - ESE 24 28 13 15 1008.6 - -
26/06:30am 28.6 - - - - ESE 22 28 12 15 1008.3 - -
26/06:15am 28.4 - - - - ESE 26 - 14 - - 1007.7 -
26/06:00am 28.4 - - - - ESE 28 33 15 18 1007.7 - -
26/05:30am 28.5 - - - - ESE 22 26 12 14 1007.6 - -
26/05:15am 28.6 - - - - ESE 24 - 13 - - 1007.3 -
26/05:00am 28.6 - - - - ESE 24 30 13 16 1007.6 - -
26/04:30am 28.6 - - - - ESE 26 32 14 17 1007.4 - -
26/04:15am 28.5 - - - - ESE 22 - 12 - - 1007.2 -
26/04:00am 28.7 - - - - ESE 22 26 12 14 1007.5 - -
26/03:30am 28.6 - - - - ESE 26 30 14 16 1007.6 - -
26/03:15am 28.6 - - - - ESE 24 - 13 - - 1007.4 -
26/03:00am 28.7 - - - - ESE 28 32 15 17 1007.8 - -
26/02:30am 28.7 - - - - ESE 26 32 14 17 1007.9 - -
26/02:15am 28.6 - - - - ESE 28 - 15 - - 1007.7 -
26/02:00am 28.6 - - - - ESE 30 35 16 19 1008.0 - -
26/01:30am 28.8 - - - - E 26 28 14 15 1008.3 - -
26/01:15am 28.8 - - - - E 28 - 15 - - 1008.1 -
26/01:00am 28.8 - - - - ESE 26 32 14 17 1008.6 - -
26/12:30am 28.9 - - - - ESE 28 32 15 17 1009.0 - -
26/12:15am 28.9 - - - - ESE 28 - 15 - - 1008.9 -
26/12:00am 29.0 - - - - ESE 32 35 17 19 1009.2 - -
 
Date/Time
EST
Temp
°C
App
Temp
°C
Dew
Point
°C
Rel
Hum
%
Delta-T
°C
Wind Press
QNH
hPa
Press
MSL
hPa
Rain since
9am
mm
Dir  Spd
km/h
Gust
km/h
Spd
kts
Gust
kts
25/11:30pm 29.0 - - - - ESE 32 35 17 19 1009.5 - -
25/11:15pm 29.1 - - - - ESE 32 - 17 - - 1009.4 -
25/11:00pm 29.0 - - - - ESE 33 39 18 21 1009.8 - -
25/10:30pm 29.1 - - - - ESE 33 39 18 21 1009.8 - -
25/10:15pm 29.0 - - - - ESE 35 - 19 - - 1009.5 -
25/10:00pm 29.1 - - - - ESE 33 39 18 21 1009.7 - -
25/09:30pm 29.1 - - - - ESE 35 39 19 21 1009.8 - -
25/09:15pm 29.2 - - - - ESE 35 - 19 - - 1009.3 -
25/09:00pm 29.2 - - - - ESE 33 41 18 22 1009.6 - -
25/08:30pm 29.2 - - - - ESE 33 39 18 21 1009.4 - -
25/08:15pm 29.2 - - - - ESE 32 - 17 - - 1008.9 -
25/08:00pm 29.2 - - - - ESE 32 37 17 20 1009.1 - -
25/07:30pm 29.2 - - - - ESE 32 37 17 20 1008.8 - -
25/07:15pm 29.2 - - - - ESE 35 - 19 - - 1008.2 -
25/07:00pm 29.3 - - - - ESE 35 43 19 23 1008.4 - -
25/06:30pm 29.3 - - - - SE 35 43 19 23 1008.1 - -
25/06:15pm 29.4 - - - - SE 35 - 19 - - 1007.7 -
25/06:00pm 29.4 - - - - SE 37 41 20 22 1007.9 - -
25/05:30pm 29.5 - - - - ESE 32 39 17 21 1007.6 - -
25/05:15pm 29.3 - - - - SE 32 - 17 - - 1007.2 -
25/05:00pm 29.3 - - - - SE 30 33 16 18 1007.6 - -
25/04:30pm 29.5 - - - - ESE 30 37 16 20 1007.5 - -
25/04:15pm 29.4 - - - - ESE 30 - 16 - - 1007.4 -
25/04:00pm 29.4 - - - - ESE 30 35 16 19 1007.8 - -
25/03:30pm 29.4 - - - - SE 32 35 17 19 1007.7 - -
25/03:15pm 29.3 - - - - ESE 32 - 17 - - 1007.5 -
25/03:00pm 29.3 - - - - ESE 32 35 17 19 1007.9 - -
25/02:30pm 29.3 - - - - SE 32 35 17 19 1008.2 - -
25/02:15pm 29.4 - - - - SE 32 - 17 - - 1008.0 -
25/02:00pm 29.3 - - - - SE 30 35 16 19 1008.4 - -
25/01:30pm 29.3 - - - - ESE 32 35 17 19 1008.6 - -
25/01:15pm 29.3 - - - - ESE 30 - 16 - - 1008.4 -
25/01:00pm 29.3 - - - - ESE 30 35 16 19 1008.8 - -
25/12:30pm 29.0 - - - - ESE 30 35 16 19 1009.2 - -
25/12:15pm 28.2 - - - - E 20 - 11 - - 1009.1 -
25/12:00pm 26.4 - - - - ESE 17 26 9 14 1009.8 - -
25/11:33am 27.4 - - - - SE 43 46 23 25 1010.1 - -
25/11:30am 28.5 - - - - SE 22 26 12 14 1010.2 - -
25/11:15am 28.3 - - - - SE 28 - 15 - - 1010.0 -
25/11:00am 28.4 - - - - ESE 28 32 15 17 1010.5 - -
25/10:30am 28.7 - - - - ESE 22 30 12 16 1010.9 - -
25/10:15am 27.2 - - - - ESE 30 - 16 - - 1010.6 -
25/10:10am 27.2 - - - - ESE 28 46 15 25 1010.7 - -
25/10:00am 28.9 - - - - ESE 22 24 12 13 1010.8 - -
25/09:30am 29.3 - - - - ESE 26 32 14 17 1010.9 - -
25/09:15am 29.2 - - - - ESE 22 - 12 - - 1010.6 -
25/09:00am 29.2 - - - - ESE 24 28 13 15 1010.8 - -
25/08:30am 29.2 - - - - ESE 22 26 12 14 1010.7 - -
25/08:15am 29.2 - - - - ESE 26 - 14 - - 1010.3 -
25/08:00am 29.2 - - - - ESE 26 30 14 16 1010.6 - -
25/07:30am 29.1 - - - - ESE 26 30 14 16 1010.4 - -
25/07:15am 29.3 - - - - ESE 24 - 13 - - 1010.2 -
25/07:00am 28.9 - - - - ESE 22 28 12 15 1010.3 - -
25/06:30am 28.3 - - - - E 30 37 16 20 1010.0 - -
25/06:15am 29.1 - - - - ESE 26 - 14 - - 1009.6 -

Other Formats:

Comma delimited format used in spreadsheet applications
http://www.bom.gov.au/fwo/IDQ60801/IDQ60801.94289.axf

JavaScript Object Notation format (JSON) in row-major order
http://www.bom.gov.au/fwo/IDQ60801/IDQ60801.94289.json